Wetterdaten: Woche 19.01.15 - 25.01.15 (KW4)
Datum Zeit Temp. A. Feuchte A. Luftdruck Regen Wind Richtung Sonnenschein ET UV Solar Taupunkt Windchill Windben
19.01.2015 00:00 0,7 C 95 % 1015,5 hPa 0,0 l/m 0,2 km/h (0 Bft) O-SO 0,00 h 0,000 mm 0,0 UV-I 0 W/m 0,0 C 0,7 C 1,3 km/h (1 Bft)
19.01.2015 01:00 0,9 C 92 % 1015,1 hPa 0,0 l/m 2,0 km/h (1 Bft) O-SO 0,00 h 0,000 mm 0,0 UV-I 0 W/m -0,2 C 0,9 C 4,6 km/h (1 Bft)
19.01.2015 02:00 1,3 C 89 % 1014,9 hPa 0,0 l/m 0,6 km/h (0 Bft) N 0,00 h 0,000 mm 0,0 UV-I 0 W/m -0,4 C 1,3 C 1,5 km/h (1 Bft)
19.01.2015 03:00 1,1 C 89 % 1014,5 hPa 0,0 l/m 1,1 km/h (1 Bft) O-SO 0,00 h 0,000 mm 0,0 UV-I 0 W/m -0,6 C 1,1 C 2,9 km/h (1 Bft)
19.01.2015 04:00 1,3 C 85 % 1014,3 hPa 0,0 l/m 2,7 km/h (1 Bft) SO 0,00 h 0,000 mm 0,0 UV-I 0 W/m -0,9 C 1,2 C 4,9 km/h (1 Bft)
19.01.2015 05:00 1,1 C 88 % 1014,2 hPa 0,0 l/m 2,3 km/h (1 Bft) SO 0,00 h 0,000 mm 0,0 UV-I 0 W/m -0,7 C 1,1 C 4,7 km/h (1 Bft)
19.01.2015 06:00 1,0 C 90 % 1014,0 hPa 0,0 l/m 3,0 km/h (1 Bft) O-SO 0,00 h 0,000 mm 0,0 UV-I 0 W/m -0,5 C 1,0 C 5,7 km/h (2 Bft)
19.01.2015 07:00 1,0 C 89 % 1013,8 hPa 0,0 l/m 2,5 km/h (1 Bft) O-SO 0,00 h 0,000 mm 0,0 UV-I 0 W/m -0,6 C 1,0 C 5,3 km/h (1 Bft)
19.01.2015 08:00 0,9 C 89 % 1013,8 hPa 0,0 l/m 2,4 km/h (1 Bft) O-SO 0,00 h 0,000 mm 0,0 UV-I 19 W/m -0,7 C 0,9 C 4,9 km/h (1 Bft)
19.01.2015 09:00 1,3 C 87 % 1013,8 hPa 0,0 l/m 2,7 km/h (1 Bft) SO 0,63 h 0,000 mm 0,0 UV-I 53 W/m -0,7 C 1,3 C 5,2 km/h (1 Bft)
19.01.2015 10:00 1,5 C 83 % 1013,9 hPa 0,0 l/m 5,0 km/h (1 Bft) S-SO 0,78 h 0,025 mm 0,0 UV-I 61 W/m -1,0 C 1,3 C 7,9 km/h (2 Bft)
19.01.2015 11:00 1,8 C 81 % 1013,5 hPa 0,0 l/m 5,9 km/h (2 Bft) SO 1,00 h 0,025 mm 0,5 UV-I 94 W/m -1,1 C 1,1 C 10,1 km/h (2 Bft)
19.01.2015 12:00 2,1 C 80 % 1013,0 hPa 0,0 l/m 9,0 km/h (2 Bft) S-SO 1,00 h 0,051 mm 0,5 UV-I 103 W/m -0,9 C -0,2 C 14,0 km/h (3 Bft)
19.01.2015 13:00 2,1 C 81 % 1012,5 hPa 0,0 l/m 6,9 km/h (2 Bft) S-SO 1,00 h 0,051 mm 0,5 UV-I 76 W/m -0,8 C 1,2 C 10,6 km/h (2 Bft)
19.01.2015 14:00 2,2 C 82 % 1012,1 hPa 0,0 l/m 6,4 km/h (2 Bft) S-SO 0,80 h 0,051 mm 0,0 UV-I 58 W/m -0,6 C 1,6 C 9,7 km/h (2 Bft)
19.01.2015 15:00 2,2 C 84 % 1012,0 hPa 0,0 l/m 5,0 km/h (1 Bft) S-SO 0,00 h 0,025 mm 0,0 UV-I 27 W/m -0,3 C 2,1 C 7,8 km/h (2 Bft)
19.01.2015 16:00 2,0 C 85 % 1011,9 hPa 0,0 l/m 4,7 km/h (1 Bft) S-SO 0,00 h 0,025 mm 0,0 UV-I 7 W/m -0,2 C 1,7 C 7,8 km/h (2 Bft)
19.01.2015 17:00 1,7 C 87 % 1011,9 hPa 0,0 l/m 2,4 km/h (1 Bft) S-SO 0,00 h 0,000 mm 0,0 UV-I 0 W/m -0,2 C 1,7 C 4,6 km/h (1 Bft)
19.01.2015 18:00 1,5 C 87 % 1011,8 hPa 0,0 l/m 3,4 km/h (1 Bft) S-SO 0,00 h 0,000 mm 0,0 UV-I 0 W/m -0,4 C 1,5 C 5,5 km/h (2 Bft)
19.01.2015 19:00 1,1 C 88 % 1011,8 hPa 0,0 l/m 3,8 km/h (1 Bft) SO 0,00 h 0,000 mm 0,0 UV-I 0 W/m -0,6 C 1,1 C 6,4 km/h (2 Bft)
19.01.2015 20:00 1,1 C 86 % 1011,6 hPa 0,0 l/m 4,8 km/h (1 Bft) SO 0,00 h 0,000 mm 0,0 UV-I 0 W/m -1,1 C 0,9 C 7,7 km/h (2 Bft)
19.01.2015 21:00 1,1 C 84 % 1011,8 hPa 0,0 l/m 4,2 km/h (1 Bft) S-SO 0,00 h 0,001 mm 0,0 UV-I 0 W/m -1,2 C 1,0 C 6,6 km/h (2 Bft)
19.01.2015 22:00 0,9 C 85 % 1011,7 hPa 0,0 l/m 3,6 km/h (1 Bft) S-SO 0,00 h 0,000 mm 0,0 UV-I 0 W/m -1,3 C 0,8 C 5,9 km/h (2 Bft)
19.01.2015 23:00 0,8 C 86 % 1011,6 hPa 0,0 l/m 3,8 km/h (1 Bft) S-SO 0,00 h 0,000 mm 0,0 UV-I 0 W/m -1,3 C 0,7 C 6,0 km/h (2 Bft)
20.01.2015 00:00 0,7 C 87 % 1011,4 hPa 0,0 l/m 2,2 km/h (1 Bft) SO 0,00 h 0,000 mm 0,0 UV-I 0 W/m -1,3 C 0,7 C 4,2 km/h (1 Bft)
20.01.2015 01:00 0,4 C 87 % 1011,3 hPa 0,0 l/m 0,7 km/h (0 Bft) S-SO 0,00 h 0,000 mm 0,0 UV-I 0 W/m -1,4 C 0,4 C 1,7 km/h (1 Bft)
20.01.2015 02:00 0,2 C 88 % 1011,2 hPa 0,0 l/m 0,6 km/h (0 Bft) SO 0,00 h 0,000 mm 0,0 UV-I 0 W/m -1,5 C 0,2 C 2,1 km/h (1 Bft)
20.01.2015 03:00 0,0 C 88 % 1010,9 hPa 0,0 l/m 1,9 km/h (1 Bft) O-SO 0,00 h 0,000 mm 0,0 UV-I 0 W/m -1,7 C 0,0 C 4,0 km/h (1 Bft)
20.01.2015 04:00 -0,1 C 89 % 1010,7 hPa 0,0 l/m 1,1 km/h (1 Bft) O-SO 0,00 h 0,000 mm 0,0 UV-I 0 W/m -1,7 C -0,1 C 2,8 km/h (1 Bft)
20.01.2015 05:00 -0,2 C 89 % 1010,5 hPa 0,0 l/m 0,7 km/h (0 Bft) O-SO 0,00 h 0,000 mm 0,0 UV-I 0 W/m -1,8 C -0,2 C 2,3 km/h (1 Bft)
20.01.2015 06:00 -0,2 C 89 % 1010,4 hPa 0,0 l/m 1,3 km/h (1 Bft) O-SO 0,00 h 0,000 mm 0,0 UV-I 0 W/m -1,8 C -0,2 C 3,0 km/h (1 Bft)
20.01.2015 07:00 -0,3 C 92 % 1010,7 hPa 0,0 l/m 1,8 km/h (1 Bft) O-SO 0,00 h 0,000 mm 0,0 UV-I 0 W/m -1,5 C -0,3 C 4,1 km/h (1 Bft)
20.01.2015 08:00 -0,5 C 93 % 1011,0 hPa 0,2 l/m 0,4 km/h (0 Bft) O-SO 0,00 h 0,000 mm 0,0 UV-I 10 W/m -1,4 C -0,5 C 1,6 km/h (1 Bft)
20.01.2015 09:00 -0,4 C 94 % 1011,1 hPa 0,2 l/m 0,1 km/h (0 Bft) N 0,00 h 0,000 mm 0,0 UV-I 17 W/m -1,3 C -0,4 C 0,7 km/h (0 Bft)
20.01.2015 10:00 -0,2 C 94 % 1011,1 hPa 0,2 l/m 0,0 km/h (0 Bft) N 0,00 h 0,000 mm 0,0 UV-I 25 W/m -1,0 C -0,2 C 0,6 km/h (0 Bft)
20.01.2015 11:00 0,1 C 94 % 1010,9 hPa 0,2 l/m 0,1 km/h (0 Bft) O 0,65 h 0,000 mm 0,5 UV-I 63 W/m -0,8 C 0,1 C 0,9 km/h (0 Bft)
20.01.2015 12:00 0,2 C 93 % 1010,8 hPa 0,2 l/m 0,0 km/h (0 Bft) N 0,67 h 0,025 mm 0,0 UV-I 54 W/m -0,7 C 0,2 C 0,5 km/h (0 Bft)
20.01.2015 13:00 0,5 C 93 % 1010,7 hPa 0,0 l/m 0,1 km/h (0 Bft) N 0,95 h 0,025 mm 0,5 UV-I 69 W/m -0,5 C 0,5 C 0,8 km/h (0 Bft)
20.01.2015 14:00 0,6 C 93 % 1010,8 hPa 0,2 l/m 1,4 km/h (1 Bft) S 0,60 h 0,025 mm 0,0 UV-I 53 W/m -0,4 C 0,6 C 3,1 km/h (1 Bft)
20.01.2015 15:00 0,5 C 94 % 1011,0 hPa 0,0 l/m 1,0 km/h (0 Bft) S 0,08 h 0,025 mm 0,0 UV-I 38 W/m -0,4 C 0,5 C 2,7 km/h (1 Bft)
20.01.2015 16:00 0,2 C 94 % 1011,2 hPa 0,0 l/m 1,1 km/h (1 Bft) S 0,00 h 0,025 mm 0,0 UV-I 13 W/m -0,6 C 0,2 C 2,8 km/h (1 Bft)
20.01.2015 17:00 -0,1 C 95 % 1011,5 hPa 0,0 l/m 0,2 km/h (0 Bft) N 0,00 h 0,000 mm 0,0 UV-I 0 W/m -0,8 C -0,1 C 1,0 km/h (0 Bft)
20.01.2015 18:00 -0,3 C 95 % 1011,7 hPa 0,0 l/m 0,5 km/h (0 Bft) N 0,00 h 0,000 mm 0,0 UV-I 0 W/m -1,0 C -0,3 C 1,2 km/h (1 Bft)
20.01.2015 19:00 -0,4 C 96 % 1012,0 hPa 0,2 l/m 0,1 km/h (0 Bft) N 0,00 h 0,000 mm 0,0 UV-I 0 W/m -0,9 C -0,4 C 0,7 km/h (0 Bft)
20.01.2015 20:00 -0,2 C 96 % 1012,4 hPa 0,0 l/m 0,4 km/h (0 Bft) N 0,00 h 0,000 mm 0,0 UV-I 0 W/m -0,8 C -0,2 C 1,5 km/h (1 Bft)
20.01.2015 21:00 -0,1 C 96 % 1012,7 hPa 0,0 l/m 1,4 km/h (1 Bft) W-SW 0,00 h 0,000 mm 0,0 UV-I 0 W/m -0,7 C -0,1 C 3,4 km/h (1 Bft)
20.01.2015 22:00 -0,2 C 94 % 1012,8 hPa 0,0 l/m 2,0 km/h (1 Bft) W-NW 0,00 h 0,000 mm 0,0 UV-I 0 W/m -1,0 C -0,2 C 4,1 km/h (1 Bft)
20.01.2015 23:00 -0,3 C 93 % 1013,3 hPa 0,0 l/m 2,1 km/h (1 Bft) W-NW 0,00 h 0,000 mm 0,0 UV-I 0 W/m -1,2 C -0,3 C 4,2 km/h (1 Bft)
21.01.2015 00:00 -0,4 C 93 % 1013,5 hPa 0,0 l/m 2,0 km/h (1 Bft) W-NW 0,00 h 0,000 mm 0,0 UV-I 0 W/m -1,4 C -0,4 C 3,9 km/h (1 Bft)
21.01.2015 01:00 -0,7 C 93 % 1013,6 hPa 0,0 l/m 1,0 km/h (0 Bft) W-NW 0,00 h 0,000 mm 0,0 UV-I 0 W/m -1,7 C -0,7 C 2,7 km/h (1 Bft)
21.01.2015 02:00 -0,9 C 93 % 1013,6 hPa 0,0 l/m 0,2 km/h (0 Bft) N 0,00 h 0,000 mm 0,0 UV-I 0 W/m -1,8 C -0,9 C 1,0 km/h (0 Bft)
21.01.2015 03:00 -1,1 C 93 % 1013,5 hPa 0,0 l/m 0,1 km/h (0 Bft) N 0,00 h 0,000 mm 0,0 UV-I 0 W/m -2,1 C -1,1 C 0,5 km/h (0 Bft)
21.01.2015 04:00 -1,3 C 94 % 1013,4 hPa 0,0 l/m 0,5 km/h (0 Bft) W-SW 0,00 h 0,000 mm 0,0 UV-I 0 W/m -2,2 C -1,3 C 1,7 km/h (1 Bft)
21.01.2015 05:00 -1,6 C 94 % 1013,4 hPa 0,0 l/m 0,0 km/h (0 Bft) N 0,00 h 0,000 mm 0,0 UV-I 0 W/m -2,4 C -1,6 C 0,1 km/h (0 Bft)
21.01.2015 06:00 -1,6 C 94 % 1013,9 hPa 0,0 l/m 0,0 km/h (0 Bft) N 0,00 h 0,000 mm 0,0 UV-I 0 W/m -2,4 C -1,6 C 0,0 km/h (0 Bft)
21.01.2015 07:00 -1,5 C 94 % 1014,2 hPa 0,0 l/m 0,4 km/h (0 Bft) N 0,00 h 0,000 mm 0,0 UV-I 0 W/m -2,4 C -1,5 C 1,1 km/h (1 Bft)
21.01.2015 08:00 -1,7 C 92 % 1014,4 hPa 0,0 l/m 0,5 km/h (0 Bft) W-NW 0,00 h 0,000 mm 0,0 UV-I 18 W/m -2,9 C -1,7 C 1,6 km/h (1 Bft)
21.01.2015 09:00 -0,8 C 88 % 1014,5 hPa 0,0 l/m 0,7 km/h (0 Bft) W-NW 0,85 h 0,000 mm 0,0 UV-I 137 W/m -2,5 C -0,8 C 2,1 km/h (1 Bft)
21.01.2015 10:00 0,6 C 82 % 1014,5 hPa 0,0 l/m 1,2 km/h (1 Bft) O-NO 1,00 h 0,051 mm 0,6 UV-I 277 W/m -2,1 C 0,6 C 3,4 km/h (1 Bft)
21.01.2015 11:00 0,8 C 83 % 1014,4 hPa 0,0 l/m 3,0 km/h (1 Bft) O 1,00 h 0,102 mm 0,8 UV-I 333 W/m -1,7 C 0,7 C 6,6 km/h (2 Bft)
21.01.2015 12:00 0,5 C 85 % 1014,2 hPa 0,0 l/m 4,4 km/h (1 Bft) O-SO 1,00 h 0,102 mm 0,7 UV-I 144 W/m -1,7 C -0,2 C 8,5 km/h (2 Bft)
21.01.2015 13:00 0,8 C 84 % 1013,5 hPa 0,0 l/m 2,2 km/h (1 Bft) O-SO 1,00 h 0,051 mm 0,6 UV-I 161 W/m -1,5 C 0,9 C 5,6 km/h (2 Bft)
21.01.2015 14:00 1,1 C 84 % 1013,2 hPa 0,0 l/m 4,3 km/h (1 Bft) O-NO 1,00 h 0,051 mm 0,5 UV-I 106 W/m -1,4 C 0,5 C 9,8 km/h (2 Bft)
21.01.2015 15:00 0,7 C 86 % 1013,1 hPa 0,0 l/m 5,1 km/h (1 Bft) O-NO 0,13 h 0,051 mm 0,0 UV-I 40 W/m -1,3 C 0,0 C 11,5 km/h (2 Bft)
21.01.2015 16:00 0,4 C 88 % 1013,0 hPa 0,0 l/m 6,2 km/h (2 Bft) O 0,00 h 0,025 mm 0,0 UV-I 15 W/m -1,4 C -0,7 C 12,8 km/h (3 Bft)
21.01.2015 17:00 0,3 C 89 % 1012,8 hPa 0,0 l/m 6,1 km/h (2 Bft) O 0,00 h 0,000 mm 0,0 UV-I 0 W/m -1,4 C -0,9 C 12,6 km/h (3 Bft)
21.01.2015 18:00 0,2 C 88 % 1012,8 hPa 0,0 l/m 9,2 km/h (2 Bft) O-NO 0,00 h 0,000 mm 0,0 UV-I 0 W/m -1,6 C -2,7 C 18,9 km/h (3 Bft)
21.01.2015 19:00 0,1 C 88 % 1013,0 hPa 0,0 l/m 9,6 km/h (2 Bft) O-NO 0,00 h 0,000 mm 0,0 UV-I 0 W/m -1,6 C -3,0 C 18,2 km/h (3 Bft)
21.01.2015 20:00 0,1 C 88 % 1013,3 hPa 0,0 l/m 7,3 km/h (2 Bft) O-NO 0,00 h 0,000 mm 0,0 UV-I 0 W/m -1,6 C -1,7 C 14,5 km/h (3 Bft)
21.01.2015 21:00 0,1 C 88 % 1013,4 hPa 0,0 l/m 5,7 km/h (2 Bft) O-NO 0,00 h 0,000 mm 0,0 UV-I 0 W/m -1,7 C -0,8 C 12,1 km/h (2 Bft)
21.01.2015 22:00 0,1 C 88 % 1013,2 hPa 0,0 l/m 7,9 km/h (2 Bft) O-NO 0,00 h 0,000 mm 0,0 UV-I 0 W/m -1,6 C -2,1 C 14,9 km/h (3 Bft)
21.01.2015 23:00 0,3 C 89 % 1012,9 hPa 0,0 l/m 6,2 km/h (2 Bft) O-NO 0,00 h 0,000 mm 0,0 UV-I 0 W/m -1,3 C -0,9 C 12,5 km/h (2 Bft)
22.01.2015 00:00 0,5 C 89 % 1012,8 hPa 0,0 l/m 7,6 km/h (2 Bft) O-NO 0,00 h 0,000 mm 0,0 UV-I 0 W/m -1,1 C -1,5 C 14,1 km/h (3 Bft)
22.01.2015 01:00 0,5 C 90 % 1012,6 hPa 0,0 l/m 6,4 km/h (2 Bft) O-NO 0,00 h 0,000 mm 0,0 UV-I 0 W/m -0,9 C -1,0 C 12,5 km/h (2 Bft)
22.01.2015 02:00 0,7 C 91 % 1012,4 hPa 0,0 l/m 6,6 km/h (2 Bft) O-NO 0,00 h 0,000 mm 0,0 UV-I 0 W/m -0,5 C -0,4 C 12,1 km/h (2 Bft)
22.01.2015 03:00 0,9 C 92 % 1012,1 hPa 0,0 l/m 6,0 km/h (2 Bft) O-NO 0,00 h 0,000 mm 0,0 UV-I 0 W/m -0,3 C 0,2 C 11,6 km/h (2 Bft)
22.01.2015 04:00 1,0 C 92 % 1011,8 hPa 0,0 l/m 5,7 km/h (2 Bft) O 0,00 h 0,000 mm 0,0 UV-I 0 W/m -0,1 C 0,3 C 11,4 km/h (2 Bft)
22.01.2015 05:00 1,2 C 92 % 1011,9 hPa 0,0 l/m 4,3 km/h (1 Bft) O-NO 0,00 h 0,000 mm 0,0 UV-I 0 W/m 0,1 C 1,0 C 9,2 km/h (2 Bft)
22.01.2015 06:00 1,4 C 92 % 1012,0 hPa 0,0 l/m 4,5 km/h (1 Bft) O-NO 0,00 h 0,000 mm 0,0 UV-I 0 W/m 0,2 C 1,2 C 9,3 km/h (2 Bft)
22.01.2015 07:00 1,4 C 92 % 1012,2 hPa 0,0 l/m 5,8 km/h (2 Bft) O-NO 0,00 h 0,000 mm 0,0 UV-I 0 W/m 0,3 C 0,8 C 10,5 km/h (2 Bft)
22.01.2015 08:00 1,7 C 92 % 1012,4 hPa 0,0 l/m 6,3 km/h (2 Bft) O-NO 0,00 h 0,000 mm 0,0 UV-I 13 W/m 0,5 C 0,7 C 12,1 km/h (2 Bft)
22.01.2015 09:00 1,9 C 91 % 1012,9 hPa 0,0 l/m 5,5 km/h (2 Bft) O-NO 0,00 h 0,000 mm 0,0 UV-I 31 W/m 0,6 C 1,5 C 10,5 km/h (2 Bft)
22.01.2015 10:00 2,3 C 91 % 1013,2 hPa 0,0 l/m 4,2 km/h (1 Bft) O-NO 0,73 h 0,025 mm 0,5 UV-I 64 W/m 0,9 C 2,0 C 9,3 km/h (2 Bft)
22.01.2015 11:00 2,8 C 90 % 1013,1 hPa 0,0 l/m 4,2 km/h (1 Bft) O-NO 1,00 h 0,025 mm 0,5 UV-I 89 W/m 1,3 C 2,6 C 8,8 km/h (2 Bft)
22.01.2015 12:00 3,1 C 89 % 1013,1 hPa 0,0 l/m 5,5 km/h (2 Bft) O-NO 1,00 h 0,025 mm 0,5 UV-I 83 W/m 1,5 C 2,6 C 10,3 km/h (2 Bft)
22.01.2015 13:00 3,2 C 89 % 1013,0 hPa 0,0 l/m 3,4 km/h (1 Bft) O-NO 0,67 h 0,025 mm 0,5 UV-I 61 W/m 1,6 C 3,0 C 7,0 km/h (2 Bft)
22.01.2015 14:00 3,4 C 89 % 1013,1 hPa 0,0 l/m 2,8 km/h (1 Bft) NO 0,50 h 0,025 mm 0,0 UV-I 54 W/m 1,8 C 3,4 C 6,5 km/h (2 Bft)
22.01.2015 15:00 3,2 C 89 % 1013,3 hPa 0,0 l/m 4,7 km/h (1 Bft) N 0,10 h 0,025 mm 0,0 UV-I 31 W/m 1,6 C 3,0 C 7,9 km/h (2 Bft)
22.01.2015 16:00 2,5 C 92 % 1013,6 hPa 0,0 l/m 6,6 km/h (2 Bft) N 0,00 h 0,025 mm 0,0 UV-I 7 W/m 1,3 C 1,9 C 10,5 km/h (2 Bft)
22.01.2015 17:00 2,2 C 93 % 1014,1 hPa 0,0 l/m 5,1 km/h (1 Bft) N 0,00 h 0,000 mm 0,0 UV-I 0 W/m 1,2 C 2,0 C 8,5 km/h (2 Bft)
22.01.2015 18:00 2,1 C 94 % 1014,7 hPa 0,0 l/m 6,2 km/h (2 Bft) N 0,00 h 0,000 mm 0,0 UV-I 0 W/m 1,2 C 1,8 C 9,6 km/h (2 Bft)
22.01.2015 19:00 1,8 C 95 % 1015,3 hPa 0,0 l/m 7,2 km/h (2 Bft) N 0,00 h 0,000 mm 0,0 UV-I 0 W/m 1,0 C 0,6 C 11,2 km/h (2 Bft)
22.01.2015 20:00 1,3 C 95 % 1015,7 hPa 0,0 l/m 4,8 km/h (1 Bft) N 0,00 h 0,000 mm 0,0 UV-I 0 W/m 0,6 C 0,9 C 8,4 km/h (2 Bft)
22.01.2015 21:00 1,1 C 94 % 1016,0 hPa 0,0 l/m 4,0 km/h (1 Bft) N 0,00 h 0,000 mm 0,0 UV-I 0 W/m 0,3 C 0,9 C 7,7 km/h (2 Bft)
22.01.2015 22:00 0,9 C 94 % 1016,4 hPa 0,0 l/m 3,8 km/h (1 Bft) N 0,00 h 0,000 mm 0,0 UV-I 0 W/m 0,1 C 0,7 C 6,9 km/h (2 Bft)
22.01.2015 23:00 0,7 C 94 % 1016,8 hPa 0,0 l/m 4,0 km/h (1 Bft) N-NW 0,00 h 0,000 mm 0,0 UV-I 0 W/m -0,2 C 0,6 C 6,7 km/h (2 Bft)
23.01.2015 00:00 0,2 C 94 % 1017,0 hPa 0,0 l/m 3,9 km/h (1 Bft) N-NW 0,00 h 0,000 mm 0,0 UV-I 0 W/m -0,6 C 0,1 C 6,9 km/h (2 Bft)
23.01.2015 01:00 -0,0 C 94 % 1017,3 hPa 0,0 l/m 4,6 km/h (1 Bft) N-NW 0,00 h 0,000 mm 0,0 UV-I 0 W/m -0,9 C -0,1 C 7,9 km/h (2 Bft)
23.01.2015 02:00 -0,3 C 94 % 1017,7 hPa 0,0 l/m 3,5 km/h (1 Bft) N-NW 0,00 h 0,000 mm 0,0 UV-I 0 W/m -1,1 C -0,4 C 6,4 km/h (2 Bft)
23.01.2015 03:00 -0,3 C 94 % 1017,9 hPa 0,0 l/m 5,7 km/h (2 Bft) N-NW 0,00 h 0,000 mm 0,0 UV-I 0 W/m -1,2 C -1,0 C 9,4 km/h (2 Bft)
23.01.2015 04:00 -0,5 C 94 % 1018,1 hPa 0,0 l/m 4,9 km/h (1 Bft) N-NW 0,00 h 0,000 mm 0,0 UV-I 0 W/m -1,3 C -0,9 C 8,5 km/h (2 Bft)
23.01.2015 05:00 -0,5 C 93 % 1018,4 hPa 0,0 l/m 6,3 km/h (2 Bft) N 0,00 h 0,000 mm 0,0 UV-I 0 W/m -1,5 C -1,5 C 10,2 km/h (2 Bft)
23.01.2015 06:00 -0,6 C 92 % 1018,7 hPa 0,0 l/m 5,9 km/h (2 Bft) N-NW 0,00 h 0,000 mm 0,0 UV-I 0 W/m -1,7 C -1,5 C 10,1 km/h (2 Bft)
23.01.2015 07:00 -0,6 C 93 % 1019,3 hPa 0,0 l/m 5,1 km/h (1 Bft) N 0,00 h 0,000 mm 0,0 UV-I 0 W/m -1,6 C -0,9 C 8,6 km/h (2 Bft)
23.01.2015 08:00 -0,6 C 93 % 1019,9 hPa 0,0 l/m 7,3 km/h (2 Bft) N 0,00 h 0,000 mm 0,0 UV-I 9 W/m -1,6 C -2,3 C 12,0 km/h (2 Bft)
23.01.2015 09:00 -0,6 C 93 % 1020,7 hPa 0,0 l/m 6,0 km/h (2 Bft) N 0,00 h 0,000 mm 0,0 UV-I 17 W/m -1,7 C -1,6 C 10,3 km/h (2 Bft)
23.01.2015 10:00 -0,7 C 92 % 1021,2 hPa 0,0 l/m 7,0 km/h (2 Bft) N-NW 0,00 h 0,000 mm 0,0 UV-I 24 W/m -1,8 C -1,9 C 11,8 km/h (2 Bft)
23.01.2015 11:00 -0,8 C 92 % 1021,5 hPa 0,0 l/m 6,4 km/h (2 Bft) N-NW 0,00 h 0,000 mm 0,0 UV-I 27 W/m -2,0 C -1,9 C 10,6 km/h (2 Bft)
23.01.2015 12:00 -0,8 C 91 % 1021,6 hPa 0,0 l/m 5,3 km/h (1 Bft) N 0,00 h 0,025 mm 0,0 UV-I 37 W/m -2,0 C -1,3 C 8,7 km/h (2 Bft)
23.01.2015 13:00 -0,8 C 91 % 1021,7 hPa 0,0 l/m 5,1 km/h (1 Bft) N 0,00 h 0,025 mm 0,0 UV-I 36 W/m -2,1 C -1,2 C 8,5 km/h (2 Bft)
23.01.2015 14:00 -0,7 C 90 % 1021,7 hPa 0,0 l/m 8,6 km/h (2 Bft) N 0,43 h 0,025 mm 0,0 UV-I 48 W/m -2,1 C -3,1 C 13,4 km/h (3 Bft)
23.01.2015 15:00 -0,8 C 90 % 1022,1 hPa 0,0 l/m 6,7 km/h (2 Bft) N 0,00 h 0,025 mm 0,0 UV-I 17 W/m -2,2 C -2,1 C 11,0 km/h (2 Bft)
23.01.2015 16:00 -1,0 C 91 % 1022,8 hPa 0,0 l/m 7,5 km/h (2 Bft) N-NW 0,00 h 0,000 mm 0,0 UV-I 5 W/m -2,3 C -2,7 C 11,7 km/h (2 Bft)
23.01.2015 17:00 -1,2 C 91 % 1023,4 hPa 0,0 l/m 8,0 km/h (2 Bft) N 0,00 h 0,000 mm 0,0 UV-I 0 W/m -2,4 C -3,3 C 12,6 km/h (3 Bft)
23.01.2015 18:00 -1,1 C 92 % 1023,8 hPa 0,0 l/m 5,3 km/h (1 Bft) N 0,00 h 0,000 mm 0,0 UV-I 0 W/m -2,3 C -1,7 C 9,1 km/h (2 Bft)
23.01.2015 19:00 -1,1 C 91 % 1024,1 hPa 0,0 l/m 3,2 km/h (1 Bft) N 0,00 h 0,000 mm 0,0 UV-I 0 W/m -2,4 C -1,2 C 5,7 km/h (2 Bft)
23.01.2015 20:00 -1,1 C 91 % 1024,2 hPa 0,0 l/m 5,1 km/h (1 Bft) N 0,00 h 0,000 mm 0,0 UV-I 0 W/m -2,3 C -1,2 C 8,4 km/h (2 Bft)
23.01.2015 21:00 -1,1 C 92 % 1024,2 hPa 0,0 l/m 4,3 km/h (1 Bft) N 0,00 h 0,000 mm 0,0 UV-I 0 W/m -2,2 C -1,3 C 6,9 km/h (2 Bft)
23.01.2015 22:00 -1,1 C 92 % 1024,3 hPa 0,0 l/m 3,3 km/h (1 Bft) N 0,00 h 0,000 mm 0,0 UV-I 0 W/m -2,2 C -1,1 C 6,3 km/h (2 Bft)
23.01.2015 23:00 -1,2 C 92 % 1024,2 hPa 0,0 l/m 1,5 km/h (1 Bft) N 0,00 h 0,000 mm 0,0 UV-I 0 W/m -2,3 C -1,2 C 3,4 km/h (1 Bft)
24.01.2015 00:00 -1,3 C 92 % 1024,1 hPa 0,0 l/m 3,8 km/h (1 Bft) N 0,00 h 0,000 mm 0,0 UV-I 0 W/m -2,4 C -1,4 C 6,9 km/h (2 Bft)
24.01.2015 01:00 -1,3 C 92 % 1023,8 hPa 0,0 l/m 3,2 km/h (1 Bft) N 0,00 h 0,000 mm 0,0 UV-I 0 W/m -2,4 C -1,3 C 6,0 km/h (2 Bft)
24.01.2015 02:00 -1,3 C 92 % 1023,5 hPa 0,0 l/m 2,5 km/h (1 Bft) N 0,00 h 0,000 mm 0,0 UV-I 0 W/m -2,4 C -1,3 C 4,9 km/h (1 Bft)
24.01.2015 03:00 -1,4 C 92 % 1023,0 hPa 0,0 l/m 2,6 km/h (1 Bft) N 0,00 h 0,000 mm 0,0 UV-I 0 W/m -2,5 C -1,4 C 5,0 km/h (1 Bft)
24.01.2015 04:00 -1,4 C 93 % 1022,5 hPa 0,0 l/m 0,5 km/h (0 Bft) N 0,00 h 0,000 mm 0,0 UV-I 0 W/m -2,4 C -1,4 C 1,8 km/h (1 Bft)
24.01.2015 05:00 -1,6 C 93 % 1022,3 hPa 0,0 l/m 0,1 km/h (0 Bft) N 0,00 h 0,000 mm 0,0 UV-I 0 W/m -2,6 C -1,6 C 0,6 km/h (0 Bft)
24.01.2015 06:00 -1,6 C 93 % 1022,0 hPa 0,0 l/m 0,1 km/h (0 Bft) N 0,00 h 0,000 mm 0,0 UV-I 0 W/m -2,6 C -1,6 C 0,5 km/h (0 Bft)
24.01.2015 07:00 -1,6 C 93 % 1021,9 hPa 0,0 l/m 1,0 km/h (0 Bft) N-NW 0,00 h 0,000 mm 0,0 UV-I 0 W/m -2,6 C -1,6 C 2,2 km/h (1 Bft)
24.01.2015 08:00 -1,5 C 94 % 1021,8 hPa 0,0 l/m 0,3 km/h (0 Bft) N 0,00 h 0,000 mm 0,0 UV-I 11 W/m -2,3 C -1,5 C 1,3 km/h (1 Bft)
24.01.2015 09:00 -1,3 C 93 % 1021,5 hPa 0,0 l/m 3,1 km/h (1 Bft) N-NW 0,00 h 0,000 mm 0,0 UV-I 30 W/m -2,2 C -1,4 C 5,3 km/h (1 Bft)
24.01.2015 10:00 -1,0 C 92 % 1021,3 hPa 0,0 l/m 4,9 km/h (1 Bft) W-SW 0,00 h 0,000 mm 0,0 UV-I 38 W/m -2,2 C -1,5 C 8,3 km/h (2 Bft)
24.01.2015 11:00 -1,1 C 91 % 1020,8 hPa 0,0 l/m 7,5 km/h (2 Bft) W 0,32 h 0,025 mm 0,0 UV-I 42 W/m -2,3 C -2,6 C 11,4 km/h (2 Bft)
24.01.2015 12:00 -1,2 C 91 % 1020,0 hPa 0,0 l/m 7,4 km/h (2 Bft) W-SW 0,85 h 0,025 mm 0,5 UV-I 63 W/m -2,4 C -2,6 C 11,4 km/h (2 Bft)
24.01.2015 13:00 -1,4 C 92 % 1019,4 hPa 0,0 l/m 6,1 km/h (2 Bft) W-SW 0,55 h 0,025 mm 0,0 UV-I 52 W/m -2,5 C -2,1 C 10,0 km/h (2 Bft)
24.01.2015 14:00 -1,3 C 90 % 1019,2 hPa 0,0 l/m 7,2 km/h (2 Bft) W-SW 0,08 h 0,025 mm 0,0 UV-I 42 W/m -2,7 C -2,5 C 11,0 km/h (2 Bft)
24.01.2015 15:00 -0,8 C 88 % 1019,2 hPa 0,0 l/m 5,7 km/h (2 Bft) W 0,00 h 0,025 mm 0,0 UV-I 20 W/m -2,6 C -1,4 C 9,3 km/h (2 Bft)
24.01.2015 16:00 -0,7 C 86 % 1019,4 hPa 0,0 l/m 6,0 km/h (2 Bft) W 0,00 h 0,000 mm 0,0 UV-I 8 W/m -2,7 C -1,3 C 9,5 km/h (2 Bft)
24.01.2015 17:00 -0,7 C 85 % 1019,8 hPa 0,0 l/m 8,0 km/h (2 Bft) W 0,00 h 0,000 mm 0,0 UV-I 0 W/m -3,0 C -2,7 C 12,3 km/h (2 Bft)
24.01.2015 18:00 -0,8 C 83 % 1020,4 hPa 0,0 l/m 8,1 km/h (2 Bft) W 0,00 h 0,025 mm 0,0 UV-I 0 W/m -3,3 C -2,8 C 12,6 km/h (3 Bft)
24.01.2015 19:00 -0,9 C 84 % 1020,9 hPa 0,0 l/m 7,0 km/h (2 Bft) W-NW 0,00 h 0,025 mm 0,0 UV-I 0 W/m -3,2 C -2,1 C 11,1 km/h (2 Bft)
24.01.2015 20:00 -1,1 C 83 % 1021,4 hPa 0,0 l/m 4,4 km/h (1 Bft) W-NW 0,00 h 0,000 mm 0,0 UV-I 0 W/m -3,7 C -1,2 C 7,5 km/h (2 Bft)
24.01.2015 21:00 -1,1 C 86 % 1021,7 hPa 0,0 l/m 5,5 km/h (2 Bft) W-NW 0,00 h 0,003 mm 0,0 UV-I 0 W/m -3,2 C -1,7 C 8,5 km/h (2 Bft)
24.01.2015 22:00 -1,1 C 88 % 1021,8 hPa 0,0 l/m 3,7 km/h (1 Bft) W 0,00 h 0,000 mm 0,0 UV-I 0 W/m -2,9 C -1,2 C 6,5 km/h (2 Bft)
24.01.2015 23:00 -1,1 C 90 % 1022,1 hPa 0,0 l/m 3,4 km/h (1 Bft) W 0,00 h 0,000 mm 0,0 UV-I 0 W/m -2,6 C -1,2 C 6,1 km/h (2 Bft)
25.01.2015 00:00 -1,1 C 90 % 1022,2 hPa 0,0 l/m 3,1 km/h (1 Bft) W-SW 0,00 h 0,000 mm 0,0 UV-I 0 W/m -2,5 C -1,1 C 5,7 km/h (2 Bft)
25.01.2015 01:00 -1,3 C 94 % 1022,4 hPa 0,0 l/m 4,1 km/h (1 Bft) W 0,00 h 0,000 mm 0,0 UV-I 0 W/m -2,2 C -1,4 C 6,9 km/h (2 Bft)
25.01.2015 02:00 -1,4 C 95 % 1022,8 hPa 0,0 l/m 0,9 km/h (0 Bft) W-NW 0,00 h 0,000 mm 0,0 UV-I 0 W/m -2,1 C -1,4 C 2,3 km/h (1 Bft)
25.01.2015 03:00 -1,3 C 95 % 1023,2 hPa 0,0 l/m 0,0 km/h (0 Bft) N 0,00 h 0,000 mm 0,0 UV-I 0 W/m -2,0 C -1,3 C 0,3 km/h (0 Bft)
25.01.2015 04:00 -1,1 C 96 % 1023,7 hPa 0,0 l/m 1,9 km/h (1 Bft) NW 0,00 h 0,000 mm 0,0 UV-I 0 W/m -1,7 C -1,1 C 3,9 km/h (1 Bft)
25.01.2015 05:00 -0,6 C 96 % 1024,2 hPa 0,4 l/m 4,6 km/h (1 Bft) NW 0,00 h 0,000 mm 0,0 UV-I 0 W/m -1,2 C -0,8 C 7,5 km/h (2 Bft)
25.01.2015 06:00 -0,3 C 96 % 1024,8 hPa 0,2 l/m 6,5 km/h (2 Bft) NW 0,00 h 0,000 mm 0,0 UV-I 0 W/m -0,8 C -1,0 C 10,0 km/h (2 Bft)
25.01.2015 07:00 -0,3 C 94 % 1025,7 hPa 0,0 l/m 5,8 km/h (2 Bft) N-NW 0,00 h 0,000 mm 0,0 UV-I 0 W/m -1,1 C -0,8 C 9,7 km/h (2 Bft)
25.01.2015 08:00 -0,4 C 94 % 1026,4 hPa 0,0 l/m 6,4 km/h (2 Bft) N-NW 0,03 h 0,000 mm 0,0 UV-I 20 W/m -1,3 C -1,2 C 10,3 km/h (2 Bft)
25.01.2015 09:00 0,4 C 91 % 1027,1 hPa 0,0 l/m 5,0 km/h (1 Bft) N-NW 0,67 h 0,000 mm 0,0 UV-I 62 W/m -0,9 C 0,2 C 7,9 km/h (2 Bft)
25.01.2015 10:00 1,2 C 87 % 1027,5 hPa 0,0 l/m 6,3 km/h (2 Bft) NW 1,00 h 0,025 mm 0,5 UV-I 104 W/m -0,7 C -0,2 C 10,0 km/h (2 Bft)
25.01.2015 11:00 1,3 C 85 % 1027,6 hPa 0,0 l/m 8,9 km/h (2 Bft) NW 1,00 h 0,051 mm 0,5 UV-I 111 W/m -0,9 C -1,2 C 12,5 km/h (2 Bft)
25.01.2015 12:00 1,8 C 81 % 1027,2 hPa 0,0 l/m 8,2 km/h (2 Bft) W-NW 1,00 h 0,051 mm 0,7 UV-I 140 W/m -1,1 C -0,1 C 12,5 km/h (2 Bft)
25.01.2015 13:00 2,1 C 79 % 1026,9 hPa 0,0 l/m 9,5 km/h (2 Bft) NW 1,00 h 0,051 mm 0,7 UV-I 131 W/m -1,1 C -0,6 C 14,0 km/h (3 Bft)
25.01.2015 14:00 1,9 C 80 % 1026,7 hPa 0,0 l/m 10,4 km/h (2 Bft) W-NW 1,00 h 0,051 mm 0,5 UV-I 85 W/m -1,1 C -1,5 C 15,4 km/h (3 Bft)
25.01.2015 15:00 1,8 C 82 % 1026,9 hPa 0,0 l/m 7,6 km/h (2 Bft) W-NW 0,22 h 0,051 mm 0,0 UV-I 45 W/m -1,0 C 0,2 C 11,7 km/h (2 Bft)
25.01.2015 16:00 1,2 C 84 % 1027,2 hPa 0,0 l/m 6,5 km/h (2 Bft) W 0,00 h 0,025 mm 0,0 UV-I 14 W/m -1,2 C 0,5 C 9,9 km/h (2 Bft)
25.01.2015 17:00 0,4 C 90 % 1027,4 hPa 0,0 l/m 4,6 km/h (1 Bft) W-SW 0,00 h 0,000 mm 0,0 UV-I 0 W/m -1,0 C 0,1 C 7,5 km/h (2 Bft)
25.01.2015 18:00 0,1 C 92 % 1027,6 hPa 0,0 l/m 3,4 km/h (1 Bft) W-SW 0,00 h 0,000 mm 0,0 UV-I 0 W/m -1,0 C 0,1 C 6,2 km/h (2 Bft)
25.01.2015 19:00 0,0 C 94 % 1027,6 hPa 0,0 l/m 0,6 km/h (0 Bft) N 0,00 h 0,000 mm 0,0 UV-I 0 W/m -0,9 C 0,0 C 2,2 km/h (1 Bft)
25.01.2015 20:00 0,1 C 94 % 1027,6 hPa 0,0 l/m 0,4 km/h (0 Bft) N 0,00 h 0,000 mm 0,0 UV-I 0 W/m -0,8 C 0,1 C 1,6 km/h (1 Bft)
25.01.2015 21:00 0,0 C 94 % 1027,5 hPa 0,0 l/m 0,0 km/h (0 Bft) N 0,00 h 0,000 mm 0,0 UV-I 0 W/m -0,8 C 0,0 C 0,4 km/h (0 Bft)
25.01.2015 22:00 -0,1 C 95 % 1027,5 hPa 0,0 l/m 0,5 km/h (0 Bft) W-SW 0,00 h 0,000 mm 0,0 UV-I 0 W/m -0,8 C -0,1 C 1,8 km/h (1 Bft)
25.01.2015 23:00 -0,1 C 95 % 1027,3 hPa 0,2 l/m 0,0 km/h (0 Bft) N 0,00 h 0,000 mm 0,0 UV-I 0 W/m -0,8 C -0,1 C 0,2 km/h (0 Bft)
Min-Datum _ 21.01.15 25.01.15 20.01.15 - 19.01.15 - - - - - 24.01.15 21.01.15 19.01.15
_ Min-Zeit 08:41 13:01 05:53 - 00:00 - - - - - 20:13 19:15 00:00
Minimum _ -1,8 C 78 % 1010,2 hPa - 0,0 km/h (0 Bft) - - - - - -3,9 C -9,8 C 0,0 km/h (0 Bft)
Max-Datum _ 22.01.15 19.01.15 25.01.15 25.01.15 21.01.15 - 21.01.15 21.01.15 21.01.15 21.01.15 22.01.15 22.01.15 21.01.15
_ Max-Zeit 14:08 00:57 10:42 05:32 19:15 - 10:12 11:00 11:24 11:40 14:11 14:21 19:15
Maximum _ 3,4 C 96 % 1027,7 hPa 0,4 l/m 20,9 km/h
O-NO (4 Bft)
- 0,07 h 0,102 mm 0,9 UV-I 461 W/m 1,9 C 3,4 C 35,4 km/h
O-NO (5 Bft)
Durchschnitt _ 0,2 C 90 % 1017,1 hPa #2,2 l/m 3,9 km/h (1 Bft) N #26:18 h #1,570 mm 0,6 UV-I 59 W/m -1,2 C -0,3 C 7,0 km/h (2 Bft)